sensor_id;sensor_type;location;lat;lon;timestamp;pressure;altitude;pressure_sealevel;temperature;humidity
58979;BME280;44763;50.464;30.612;2024-03-22T00:00:00;100680.32;;;2.81;100.00
58979;BME280;44763;50.464;30.612;2024-03-22T00:02:01;100682.16;;;2.81;100.00
58979;BME280;44763;50.464;30.612;2024-03-22T00:04:01;100676.86;;;2.79;100.00
58979;BME280;44763;50.464;30.612;2024-03-22T00:06:02;100676.16;;;2.77;100.00
58979;BME280;44763;50.464;30.612;2024-03-22T00:08:03;100674.00;;;2.73;100.00
58979;BME280;44763;50.464;30.612;2024-03-22T00:10:06;100674.16;;;2.71;100.00
58979;BME280;44763;50.464;30.612;2024-03-22T00:12:06;100672.09;;;2.69;100.00
58979;BME280;44763;50.464;30.612;2024-03-22T00:14:08;100674.86;;;2.67;100.00
58979;BME280;44763;50.464;30.612;2024-03-22T00:16:09;100673.95;;;2.65;100.00
58979;BME280;44763;50.464;30.612;2024-03-22T00:18:10;100675.75;;;2.65;100.00
58979;BME280;44763;50.464;30.612;2024-03-22T00:20:11;100671.73;;;2.65;100.00
58979;BME280;44763;50.464;30.612;2024-03-22T00:22:12;100670.45;;;2.65;100.00
58979;BME280;44763;50.464;30.612;2024-03-22T00:24:12;100672.09;;;2.65;100.00
58979;BME280;44763;50.464;30.612;2024-03-22T00:26:13;100671.55;;;2.63;100.00
58979;BME280;44763;50.464;30.612;2024-03-22T00:28:14;100668.80;;;2.62;100.00
58979;BME280;44763;50.464;30.612;2024-03-22T00:30:15;100665.64;;;2.60;100.00
58979;BME280;44763;50.464;30.612;2024-03-22T00:32:16;100662.35;;;2.57;100.00
58979;BME280;44763;50.464;30.612;2024-03-22T00:34:16;100659.86;;;2.53;100.00
58979;BME280;44763;50.464;30.612;2024-03-22T00:36:17;100660.96;;;2.48;100.00
58979;BME280;44763;50.464;30.612;2024-03-22T00:38:18;100659.83;;;2.45;100.00
58979;BME280;44763;50.464;30.612;2024-03-22T00:40:18;100656.83;;;2.43;100.00
58979;BME280;44763;50.464;30.612;2024-03-22T00:42:21;100657.07;;;2.43;100.00
58979;BME280;44763;50.464;30.612;2024-03-22T00:44:21;100654.63;;;2.42;100.00
58979;BME280;44763;50.464;30.612;2024-03-22T00:46:23;100652.67;;;2.43;100.00
58979;BME280;44763;50.464;30.612;2024-03-22T00:48:24;100654.11;;;2.44;100.00
58979;BME280;44763;50.464;30.612;2024-03-22T00:50:24;100650.48;;;2.46;100.00
58979;BME280;44763;50.464;30.612;2024-03-22T00:52:25;100653.22;;;2.47;100.00
58979;BME280;44763;50.464;30.612;2024-03-22T00:54:26;100651.98;;;2.47;100.00
58979;BME280;44763;50.464;30.612;2024-03-22T00:56:27;100645.64;;;2.45;100.00
58979;BME280;44763;50.464;30.612;2024-03-22T00:58:29;100648.55;;;2.44;100.00
58979;BME280;44763;50.464;30.612;2024-03-22T01:00:29;100650.34;;;2.41;100.00
58979;BME280;44763;50.464;30.612;2024-03-22T01:02:30;100645.77;;;2.39;100.00
58979;BME280;44763;50.464;30.612;2024-03-22T01:04:31;100643.79;;;2.38;100.00
58979;BME280;44763;50.464;30.612;2024-03-22T01:06:31;100641.89;;;2.38;100.00
58979;BME280;44763;50.464;30.612;2024-03-22T01:08:32;100639.15;;;2.37;100.00
58979;BME280;44763;50.464;30.612;2024-03-22T01:10:33;100637.33;;;2.35;100.00
58979;BME280;44763;50.464;30.612;2024-03-22T01:12:34;100642.23;;;2.33;100.00
58979;BME280;44763;50.464;30.612;2024-03-22T01:14:36;100641.86;;;2.31;100.00
58979;BME280;44763;50.464;30.612;2024-03-22T01:16:37;100641.79;;;2.28;100.00
58979;BME280;44763;50.464;30.612;2024-03-22T01:18:38;100641.77;;;2.26;100.00
58979;BME280;44763;50.464;30.612;2024-03-22T01:20:39;100643.02;;;2.24;100.00
58979;BME280;44763;50.464;30.612;2024-03-22T01:22:39;100648.38;;;2.23;100.00
58979;BME280;44763;50.464;30.612;2024-03-22T01:24:40;100647.20;;;2.20;100.00
58979;BME280;44763;50.464;30.612;2024-03-22T01:26:41;100644.64;;;2.17;100.00
58979;BME280;44763;50.464;30.612;2024-03-22T01:28:42;100644.98;;;2.12;100.00
58979;BME280;44763;50.464;30.612;2024-03-22T01:30:43;100645.61;;;2.07;100.00
58979;BME280;44763;50.464;30.612;2024-03-22T01:32:44;100646.04;;;2.02;100.00
58979;BME280;44763;50.464;30.612;2024-03-22T01:34:45;100644.27;;;1.98;100.00
58979;BME280;44763;50.464;30.612;2024-03-22T01:36:45;100640.73;;;1.96;100.00
58979;BME280;44763;50.464;30.612;2024-03-22T01:38:46;100641.21;;;1.94;100.00
58979;BME280;44763;50.464;30.612;2024-03-22T01:40:47;100639.66;;;1.94;100.00
58979;BME280;44763;50.464;30.612;2024-03-22T01:42:47;100639.56;;;1.95;100.00
58979;BME280;44763;50.464;30.612;2024-03-22T01:44:49;100639.98;;;1.94;100.00
58979;BME280;44763;50.464;30.612;2024-03-22T01:46:50;100641.50;;;1.93;100.00
58979;BME280;44763;50.464;30.612;2024-03-22T01:48:51;100641.89;;;1.93;100.00
58979;BME280;44763;50.464;30.612;2024-03-22T01:50:53;100640.69;;;1.90;100.00
58979;BME280;44763;50.464;30.612;2024-03-22T01:52:54;100638.18;;;1.87;100.00
58979;BME280;44763;50.464;30.612;2024-03-22T01:54:55;100638.51;;;1.83;100.00
58979;BME280;44763;50.464;30.612;2024-03-22T01:56:56;100636.50;;;1.79;100.00
58979;BME280;44763;50.464;30.612;2024-03-22T01:58:57;100635.89;;;1.76;100.00
58979;BME280;44763;50.464;30.612;2024-03-22T02:00:58;100640.88;;;1.72;100.00
58979;BME280;44763;50.464;30.612;2024-03-22T02:02:59;100638.27;;;1.68;100.00
58979;BME280;44763;50.464;30.612;2024-03-22T02:05:11;100640.54;;;1.66;100.00
58979;BME280;44763;50.464;30.612;2024-03-22T02:07:12;100640.88;;;1.64;100.00
58979;BME280;44763;50.464;30.612;2024-03-22T02:09:14;100641.22;;;1.62;100.00
58979;BME280;44763;50.464;30.612;2024-03-22T02:11:15;100640.10;;;1.61;100.00
58979;BME280;44763;50.464;30.612;2024-03-22T02:13:16;100638.14;;;1.59;100.00
58979;BME280;44763;50.464;30.612;2024-03-22T02:15:17;100636.52;;;1.60;100.00
58979;BME280;44763;50.464;30.612;2024-03-22T02:17:17;100633.14;;;1.58;100.00
58979;BME280;44763;50.464;30.612;2024-03-22T02:19:18;100631.28;;;1.57;100.00
58979;BME280;44763;50.464;30.612;2024-03-22T02:21:18;100632.26;;;1.58;100.00
58979;BME280;44763;50.464;30.612;2024-03-22T02:23:32;100632.14;;;1.59;100.00
58979;BME280;44763;50.464;30.612;2024-03-22T02:25:33;100633.20;;;1.61;100.00
58979;BME280;44763;50.464;30.612;2024-03-22T02:27:34;100632.52;;;1.65;100.00
58979;BME280;44763;50.464;30.612;2024-03-22T02:29:35;100631.74;;;1.69;100.00
58979;BME280;44763;50.464;30.612;2024-03-22T02:31:36;100634.68;;;1.73;100.00
58979;BME280;44763;50.464;30.612;2024-03-22T02:33:36;100633.33;;;1.75;100.00
58979;BME280;44763;50.464;30.612;2024-03-22T02:35:37;100634.13;;;1.76;100.00
58979;BME280;44763;50.464;30.612;2024-03-22T02:37:38;100629.56;;;1.76;100.00
58979;BME280;44763;50.464;30.612;2024-03-22T02:39:38;100634.01;;;1.75;100.00
58979;BME280;44763;50.464;30.612;2024-03-22T02:41:39;100633.87;;;1.75;100.00
58979;BME280;44763;50.464;30.612;2024-03-22T02:43:40;100633.86;;;1.74;100.00
58979;BME280;44763;50.464;30.612;2024-03-22T02:45:40;100633.20;;;1.74;100.00
58979;BME280;44763;50.464;30.612;2024-03-22T02:47:41;100630.34;;;1.70;100.00
58979;BME280;44763;50.464;30.612;2024-03-22T02:49:42;100628.77;;;1.68;100.00
58979;BME280;44763;50.464;30.612;2024-03-22T02:51:42;100628.69;;;1.65;100.00
58979;BME280;44763;50.464;30.612;2024-03-22T02:53:43;100631.00;;;1.62;100.00
58979;BME280;44763;50.464;30.612;2024-03-22T02:55:44;100631.16;;;1.61;100.00
58979;BME280;44763;50.464;30.612;2024-03-22T02:57:44;100630.19;;;1.60;100.00
58979;BME280;44763;50.464;30.612;2024-03-22T02:59:45;100632.38;;;1.61;100.00
58979;BME280;44763;50.464;30.612;2024-03-22T03:01:46;100633.48;;;1.60;100.00
58979;BME280;44763;50.464;30.612;2024-03-22T03:03:47;100632.86;;;1.59;100.00
58979;BME280;44763;50.464;30.612;2024-03-22T03:05:47;100631.37;;;1.58;100.00
58979;BME280;44763;50.464;30.612;2024-03-22T03:07:49;100630.56;;;1.57;100.00
58979;BME280;44763;50.464;30.612;2024-03-22T03:09:51;100631.05;;;1.53;100.00
58979;BME280;44763;50.464;30.612;2024-03-22T03:11:51;100628.74;;;1.51;100.00
58979;BME280;44763;50.464;30.612;2024-03-22T03:13:52;100627.88;;;1.51;100.00
58979;BME280;44763;50.464;30.612;2024-03-22T03:15:53;100628.09;;;1.50;100.00
58979;BME280;44763;50.464;30.612;2024-03-22T03:17:54;100630.58;;;1.48;100.00
58979;BME280;44763;50.464;30.612;2024-03-22T03:19:54;100630.20;;;1.46;100.00
58979;BME280;44763;50.464;30.612;2024-03-22T03:21:55;100632.42;;;1.45;100.00
58979;BME280;44763;50.464;30.612;2024-03-22T03:23:55;100628.99;;;1.44;100.00
58979;BME280;44763;50.464;30.612;2024-03-22T03:25:56;100630.05;;;1.44;100.00
58979;BME280;44763;50.464;30.612;2024-03-22T03:27:57;100628.77;;;1.42;100.00
58979;BME280;44763;50.464;30.612;2024-03-22T03:29:57;100631.20;;;1.40;100.00
58979;BME280;44763;50.464;30.612;2024-03-22T03:31:58;100628.27;;;1.38;100.00
58979;BME280;44763;50.464;30.612;2024-03-22T03:33:59;100630.20;;;1.37;100.00
58979;BME280;44763;50.464;30.612;2024-03-22T03:35:59;100632.59;;;1.38;100.00
58979;BME280;44763;50.464;30.612;2024-03-22T03:38:00;100633.61;;;1.39;100.00
58979;BME280;44763;50.464;30.612;2024-03-22T03:40:01;100633.54;;;1.40;100.00
58979;BME280;44763;50.464;30.612;2024-03-22T03:42:02;100631.72;;;1.40;100.00
58979;BME280;44763;50.464;30.612;2024-03-22T03:44:02;100632.27;;;1.40;100.00
58979;BME280;44763;50.464;30.612;2024-03-22T03:46:03;100628.39;;;1.38;100.00
58979;BME280;44763;50.464;30.612;2024-03-22T03:48:04;100627.05;;;1.40;100.00
58979;BME280;44763;50.464;30.612;2024-03-22T03:50:05;100627.27;;;1.43;100.00
58979;BME280;44763;50.464;30.612;2024-03-22T03:52:06;100626.38;;;1.48;100.00
58979;BME280;44763;50.464;30.612;2024-03-22T03:54:06;100625.63;;;1.49;100.00
58979;BME280;44763;50.464;30.612;2024-03-22T03:56:07;100626.52;;;1.49;100.00
58979;BME280;44763;50.464;30.612;2024-03-22T03:58:08;100626.73;;;1.48;100.00
58979;BME280;44763;50.464;30.612;2024-03-22T04:00:09;100625.86;;;1.48;100.00
58979;BME280;44763;50.464;30.612;2024-03-22T04:02:09;100622.41;;;1.47;100.00
58979;BME280;44763;50.464;30.612;2024-03-22T04:04:11;100624.92;;;1.46;100.00
58979;BME280;44763;50.464;30.612;2024-03-22T04:06:11;100626.23;;;1.48;100.00
58979;BME280;44763;50.464;30.612;2024-03-22T04:08:12;100627.09;;;1.50;100.00
58979;BME280;44763;50.464;30.612;2024-03-22T04:10:13;100628.57;;;1.51;100.00
58979;BME280;44763;50.464;30.612;2024-03-22T04:12:14;100626.98;;;1.49;100.00
58979;BME280;44763;50.464;30.612;2024-03-22T04:14:15;100634.52;;;1.49;100.00
58979;BME280;44763;50.464;30.612;2024-03-22T04:16:16;100631.16;;;1.47;100.00
58979;BME280;44763;50.464;30.612;2024-03-22T04:18:16;100632.73;;;1.47;100.00
58979;BME280;44763;50.464;30.612;2024-03-22T04:20:17;100632.32;;;1.55;100.00
58979;BME280;44763;50.464;30.612;2024-03-22T04:22:18;100632.27;;;1.70;100.00
58979;BME280;44763;50.464;30.612;2024-03-22T04:24:19;100632.77;;;1.91;100.00
58979;BME280;44763;50.464;30.612;2024-03-22T04:26:19;100629.48;;;2.16;100.00
58979;BME280;44763;50.464;30.612;2024-03-22T04:28:21;100632.50;;;2.47;100.00
58979;BME280;44763;50.464;30.612;2024-03-22T04:30:22;100632.63;;;2.81;100.00
58979;BME280;44763;50.464;30.612;2024-03-22T04:32:23;100631.08;;;3.15;100.00
58979;BME280;44763;50.464;30.612;2024-03-22T04:34:23;100625.80;;;3.50;100.00
58979;BME280;44763;50.464;30.612;2024-03-22T04:36:25;100627.58;;;3.85;100.00
58979;BME280;44763;50.464;30.612;2024-03-22T04:38:25;100629.05;;;4.18;100.00
58979;BME280;44763;50.464;30.612;2024-03-22T04:40:26;100628.10;;;4.49;100.00
58979;BME280;44763;50.464;30.612;2024-03-22T04:42:27;100631.07;;;4.80;100.00
58979;BME280;44763;50.464;30.612;2024-03-22T04:44:28;100633.07;;;5.11;100.00
58979;BME280;44763;50.464;30.612;2024-03-22T04:46:29;100632.05;;;5.44;100.00
58979;BME280;44763;50.464;30.612;2024-03-22T04:48:29;100630.73;;;5.78;100.00
58979;BME280;44763;50.464;30.612;2024-03-22T04:50:31;100630.64;;;6.12;100.00
58979;BME280;44763;50.464;30.612;2024-03-22T04:52:32;100630.89;;;6.45;100.00
58979;BME280;44763;50.464;30.612;2024-03-22T04:54:32;100632.14;;;6.76;100.00
58979;BME280;44763;50.464;30.612;2024-03-22T04:56:34;100634.87;;;7.06;100.00
58979;BME280;44763;50.464;30.612;2024-03-22T04:58:34;100634.21;;;7.37;100.00
58979;BME280;44763;50.464;30.612;2024-03-22T05:00:35;100633.31;;;7.66;100.00
58979;BME280;44763;50.464;30.612;2024-03-22T05:02:36;100633.46;;;7.94;100.00
58979;BME280;44763;50.464;30.612;2024-03-22T05:04:36;100630.20;;;8.20;100.00
58979;BME280;44763;50.464;30.612;2024-03-22T05:06:38;100629.67;;;8.43;100.00
58979;BME280;44763;50.464;30.612;2024-03-22T05:08:38;100631.30;;;8.64;99.78
58979;BME280;44763;50.464;30.612;2024-03-22T05:10:39;100630.02;;;8.89;97.78
58979;BME280;44763;50.464;30.612;2024-03-22T05:12:39;100631.38;;;9.13;96.39
58979;BME280;44763;50.464;30.612;2024-03-22T05:14:40;100635.01;;;9.38;94.66
58979;BME280;44763;50.464;30.612;2024-03-22T05:16:41;100634.10;;;9.62;92.64
58979;BME280;44763;50.464;30.612;2024-03-22T05:18:42;100624.11;;;9.82;91.25
58979;BME280;44763;50.464;30.612;2024-03-22T05:20:44;100624.77;;;10.03;89.91
58979;BME280;44763;50.464;30.612;2024-03-22T05:22:44;100628.71;;;10.24;88.84
58979;BME280;44763;50.464;30.612;2024-03-22T05:24:45;100631.43;;;10.48;87.63
58979;BME280;44763;50.464;30.612;2024-03-22T05:26:46;100633.23;;;10.73;86.26
58979;BME280;44763;50.464;30.612;2024-03-22T05:29:59;100632.70;;;11.05;85.33
58979;BME280;44763;50.464;30.612;2024-03-22T05:32:00;100634.13;;;11.30;83.68
58979;BME280;44763;50.464;30.612;2024-03-22T05:34:01;100631.17;;;11.54;82.26
58979;BME280;44763;50.464;30.612;2024-03-22T05:36:02;100626.58;;;11.79;81.19
58979;BME280;44763;50.464;30.612;2024-03-22T05:38:03;100624.23;;;12.04;80.10
58979;BME280;44763;50.464;30.612;2024-03-22T05:40:05;100619.81;;;12.27;78.91
58979;BME280;44763;50.464;30.612;2024-03-22T05:42:06;100618.65;;;12.47;77.97
58979;BME280;44763;50.464;30.612;2024-03-22T05:44:07;100618.42;;;12.69;77.01
58979;BME280;44763;50.464;30.612;2024-03-22T05:46:08;100617.52;;;12.87;75.71
58979;BME280;44763;50.464;30.612;2024-03-22T05:48:09;100612.09;;;13.03;75.56
58979;BME280;44763;50.464;30.612;2024-03-22T05:50:09;100618.88;;;13.17;74.34
58979;BME280;44763;50.464;30.612;2024-03-22T05:52:10;100619.53;;;13.31;72.99
58979;BME280;44763;50.464;30.612;2024-03-22T05:54:12;100621.09;;;13.46;71.96
58979;BME280;44763;50.464;30.612;2024-03-22T05:56:13;100624.63;;;13.57;70.83
58979;BME280;44763;50.464;30.612;2024-03-22T05:58:14;100626.77;;;13.68;70.28
58979;BME280;44763;50.464;30.612;2024-03-22T06:00:15;100628.36;;;13.80;69.01
58979;BME280;44763;50.464;30.612;2024-03-22T06:02:16;100626.00;;;13.93;68.78
58979;BME280;44763;50.464;30.612;2024-03-22T06:04:17;100624.04;;;14.06;67.99
58979;BME280;44763;50.464;30.612;2024-03-22T06:06:17;100625.34;;;14.18;68.17
58979;BME280;44763;50.464;30.612;2024-03-22T06:08:18;100622.16;;;14.33;68.01
58979;BME280;44763;50.464;30.612;2024-03-22T06:10:21;100625.34;;;14.44;67.63
58979;BME280;44763;50.464;30.612;2024-03-22T06:12:22;100628.56;;;14.50;67.45
58979;BME280;44763;50.464;30.612;2024-03-22T06:14:23;100627.37;;;14.55;67.22
58979;BME280;44763;50.464;30.612;2024-03-22T06:16:24;100629.58;;;14.64;66.87
58979;BME280;44763;50.464;30.612;2024-03-22T06:18:24;100630.05;;;14.72;66.33
58979;BME280;44763;50.464;30.612;2024-03-22T06:20:25;100630.09;;;14.83;65.80
58979;BME280;44763;50.464;30.612;2024-03-22T06:22:26;100629.73;;;14.94;65.20
58979;BME280;44763;50.464;30.612;2024-03-22T06:24:27;100630.40;;;15.08;64.84
58979;BME280;44763;50.464;30.612;2024-03-22T06:26:27;100630.16;;;15.19;64.35
58979;BME280;44763;50.464;30.612;2024-03-22T06:28:28;100627.48;;;15.20;63.41
58979;BME280;44763;50.464;30.612;2024-03-22T06:30:29;100626.57;;;15.16;63.09
58979;BME280;44763;50.464;30.612;2024-03-22T06:32:30;100625.47;;;15.15;62.70
58979;BME280;44763;50.464;30.612;2024-03-22T06:34:31;100626.73;;;15.19;62.04
58979;BME280;44763;50.464;30.612;2024-03-22T06:36:31;100624.56;;;15.24;61.40
58979;BME280;44763;50.464;30.612;2024-03-22T06:38:35;100623.27;;;15.26;60.57
58979;BME280;44763;50.464;30.612;2024-03-22T06:40:36;100621.85;;;15.32;60.31
58979;BME280;44763;50.464;30.612;2024-03-22T06:42:36;100622.00;;;15.37;58.73
58979;BME280;44763;50.464;30.612;2024-03-22T06:44:37;100622.02;;;15.15;57.66
58979;BME280;44763;50.464;30.612;2024-03-22T06:46:39;100623.62;;;14.57;57.80
58979;BME280;44763;50.464;30.612;2024-03-22T06:48:40;100625.17;;;13.77;59.75
58979;BME280;44763;50.464;30.612;2024-03-22T06:50:41;100623.64;;;13.01;61.99
58979;BME280;44763;50.464;30.612;2024-03-22T06:52:42;100619.93;;;12.46;64.20
58979;BME280;44763;50.464;30.612;2024-03-22T06:54:43;100617.52;;;12.01;65.96
58979;BME280;44763;50.464;30.612;2024-03-22T06:56:44;100619.45;;;11.66;68.56
58979;BME280;44763;50.464;30.612;2024-03-22T06:58:44;100627.81;;;11.40;70.37
58979;BME280;44763;50.464;30.612;2024-03-22T07:00:45;100623.80;;;11.18;71.77
58979;BME280;44763;50.464;30.612;2024-03-22T07:02:46;100627.98;;;11.05;73.11
58979;BME280;44763;50.464;30.612;2024-03-22T07:04:46;100627.95;;;10.94;73.48
58979;BME280;44763;50.464;30.612;2024-03-22T07:06:47;100627.63;;;10.79;74.38
58979;BME280;44763;50.464;30.612;2024-03-22T07:08:48;100623.10;;;10.66;75.64
58979;BME280;44763;50.464;30.612;2024-03-22T07:10:50;100621.13;;;10.60;76.16
58979;BME280;44763;50.464;30.612;2024-03-22T07:12:51;100623.75;;;10.57;76.58
58979;BME280;44763;50.464;30.612;2024-03-22T07:14:52;100617.40;;;10.52;76.37
58979;BME280;44763;50.464;30.612;2024-03-22T07:16:52;100616.26;;;10.40;77.02
58979;BME280;44763;50.464;30.612;2024-03-22T07:18:56;100618.16;;;10.23;78.00
58979;BME280;44763;50.464;30.612;2024-03-22T07:20:57;100618.28;;;10.08;79.28
58979;BME280;44763;50.464;30.612;2024-03-22T07:23:01;100618.46;;;9.96;79.94
58979;BME280;44763;50.464;30.612;2024-03-22T07:25:02;100616.66;;;9.88;80.43
58979;BME280;44763;50.464;30.612;2024-03-22T07:27:03;100617.89;;;9.88;81.34
58979;BME280;44763;50.464;30.612;2024-03-22T07:29:04;100614.05;;;9.94;81.09
58979;BME280;44763;50.464;30.612;2024-03-22T07:31:05;100617.34;;;9.99;81.03
58979;BME280;44763;50.464;30.612;2024-03-22T07:33:05;100616.84;;;10.04;81.07
58979;BME280;44763;50.464;30.612;2024-03-22T07:35:06;100616.37;;;10.09;80.81
58979;BME280;44763;50.464;30.612;2024-03-22T07:37:07;100616.43;;;10.20;80.35
58979;BME280;44763;50.464;30.612;2024-03-22T07:39:08;100618.09;;;10.28;80.05
58979;BME280;44763;50.464;30.612;2024-03-22T07:41:10;100619.66;;;10.32;79.89
58979;BME280;44763;50.464;30.612;2024-03-22T07:43:11;100616.83;;;10.35;80.04
58979;BME280;44763;50.464;30.612;2024-03-22T07:45:13;100610.97;;;10.41;79.68
58979;BME280;44763;50.464;30.612;2024-03-22T07:47:14;100606.36;;;10.47;79.18
58979;BME280;44763;50.464;30.612;2024-03-22T07:49:15;100606.43;;;10.51;77.71
58979;BME280;44763;50.464;30.612;2024-03-22T07:51:15;100603.13;;;10.50;77.49
58979;BME280;44763;50.464;30.612;2024-03-22T07:53:16;100601.23;;;10.51;78.16
58979;BME280;44763;50.464;30.612;2024-03-22T07:55:17;100599.02;;;10.55;77.05
58979;BME280;44763;50.464;30.612;2024-03-22T07:57:18;100597.89;;;10.55;76.52
58979;BME280;44763;50.464;30.612;2024-03-22T07:59:19;100594.23;;;10.58;77.27
58979;BME280;44763;50.464;30.612;2024-03-22T08:01:19;100600.41;;;10.65;76.74
58979;BME280;44763;50.464;30.612;2024-03-22T08:03:20;100601.77;;;10.74;75.28
58979;BME280;44763;50.464;30.612;2024-03-22T08:05:21;100597.96;;;10.83;74.76
58979;BME280;44763;50.464;30.612;2024-03-22T08:07:22;100598.79;;;10.89;73.59
58979;BME280;44763;50.464;30.612;2024-03-22T08:09:23;100600.23;;;10.93;72.36
58979;BME280;44763;50.464;30.612;2024-03-22T08:11:23;100598.90;;;10.92;72.93
58979;BME280;44763;50.464;30.612;2024-03-22T08:13:25;100595.58;;;10.97;72.74
58979;BME280;44763;50.464;30.612;2024-03-22T08:15:26;100596.48;;;11.04;72.27
58979;BME280;44763;50.464;30.612;2024-03-22T08:17:27;100596.24;;;11.11;72.32
58979;BME280;44763;50.464;30.612;2024-03-22T08:19:28;100592.09;;;11.19;72.18
58979;BME280;44763;50.464;30.612;2024-03-22T08:21:29;100586.52;;;11.24;72.35
58979;BME280;44763;50.464;30.612;2024-03-22T08:23:30;100585.16;;;11.27;72.54
58979;BME280;44763;50.464;30.612;2024-03-22T08:25:30;100583.98;;;11.31;72.12
58979;BME280;44763;50.464;30.612;2024-03-22T08:27:32;100579.34;;;11.32;71.77
58979;BME280;44763;50.464;30.612;2024-03-22T08:29:32;100579.03;;;11.33;71.65
58979;BME280;44763;50.464;30.612;2024-03-22T08:31:33;100575.56;;;11.35;70.69
58979;BME280;44763;50.464;30.612;2024-03-22T08:33:34;100572.48;;;11.35;70.81
58979;BME280;44763;50.464;30.612;2024-03-22T08:35:34;100572.21;;;11.36;69.81
58979;BME280;44763;50.464;30.612;2024-03-22T08:37:35;100571.74;;;11.35;68.36
58979;BME280;44763;50.464;30.612;2024-03-22T08:39:36;100568.58;;;11.34;68.34
58979;BME280;44763;50.464;30.612;2024-03-22T08:41:37;100568.27;;;11.36;68.03
58979;BME280;44763;50.464;30.612;2024-03-22T08:43:38;100564.25;;;11.37;63.78
58979;BME280;44763;50.464;30.612;2024-03-22T08:45:39;100559.98;;;11.33;62.52
58979;BME280;44763;50.464;30.612;2024-03-22T08:47:39;100560.05;;;11.25;64.53
58979;BME280;44763;50.464;30.612;2024-03-22T08:49:40;100555.63;;;11.19;64.77
58979;BME280;44763;50.464;30.612;2024-03-22T08:51:43;100553.48;;;11.15;66.00
58979;BME280;44763;50.464;30.612;2024-03-22T08:53:46;100553.33;;;11.13;66.72
58979;BME280;44763;50.464;30.612;2024-03-22T08:55:47;100549.55;;;11.12;66.68
58979;BME280;44763;50.464;30.612;2024-03-22T08:57:48;100549.52;;;11.14;67.58
58979;BME280;44763;50.464;30.612;2024-03-22T08:59:49;100552.00;;;11.21;67.53
58979;BME280;44763;50.464;30.612;2024-03-22T09:01:50;100552.88;;;11.29;66.83
58979;BME280;44763;50.464;30.612;2024-03-22T09:03:51;100544.03;;;11.35;65.74
58979;BME280;44763;50.464;30.612;2024-03-22T09:05:53;100544.67;;;11.37;63.38
58979;BME280;44763;50.464;30.612;2024-03-22T09:07:54;100546.14;;;11.37;61.91
58979;BME280;44763;50.464;30.612;2024-03-22T09:09:56;100545.23;;;11.36;61.48
58979;BME280;44763;50.464;30.612;2024-03-22T09:11:57;100539.07;;;11.35;61.94
58979;BME280;44763;50.464;30.612;2024-03-22T09:13:57;100539.54;;;11.37;61.52
58979;BME280;44763;50.464;30.612;2024-03-22T09:15:59;100536.45;;;11.37;62.29
58979;BME280;44763;50.464;30.612;2024-03-22T09:17:59;100535.98;;;11.40;62.41
58979;BME280;44763;50.464;30.612;2024-03-22T09:20:00;100530.80;;;11.46;62.47
58979;BME280;44763;50.464;30.612;2024-03-22T09:22:01;100527.80;;;11.53;62.54
58979;BME280;44763;50.464;30.612;2024-03-22T09:24:03;100527.02;;;11.59;62.93
58979;BME280;44763;50.464;30.612;2024-03-22T09:26:05;100522.61;;;11.64;62.50
58979;BME280;44763;50.464;30.612;2024-03-22T09:28:06;100521.40;;;11.66;62.16
58979;BME280;44763;50.464;30.612;2024-03-22T09:30:07;100518.89;;;11.63;62.41
58979;BME280;44763;50.464;30.612;2024-03-22T09:32:08;100512.70;;;11.63;63.04
58979;BME280;44763;50.464;30.612;2024-03-22T09:34:09;100511.07;;;11.69;63.64
58979;BME280;44763;50.464;30.612;2024-03-22T09:36:09;100504.83;;;11.74;62.91
58979;BME280;44763;50.464;30.612;2024-03-22T09:38:10;100504.50;;;11.83;62.84
58979;BME280;44763;50.464;30.612;2024-03-22T09:40:11;100503.27;;;11.94;62.44
58979;BME280;44763;50.464;30.612;2024-03-22T09:42:15;100501.38;;;12.05;62.06
58979;BME280;44763;50.464;30.612;2024-03-22T09:44:18;100499.30;;;12.13;62.15
58979;BME280;44763;50.464;30.612;2024-03-22T09:46:20;100501.82;;;12.21;62.20
58979;BME280;44763;50.464;30.612;2024-03-22T09:48:23;100500.12;;;12.30;61.82
58979;BME280;44763;50.464;30.612;2024-03-22T09:50:26;100501.97;;;12.37;61.68
58979;BME280;44763;50.464;30.612;2024-03-22T09:52:28;100500.04;;;12.44;61.13
58979;BME280;44763;50.464;30.612;2024-03-22T09:54:29;100495.63;;;12.50;59.57
58979;BME280;44763;50.464;30.612;2024-03-22T09:56:31;100494.48;;;12.50;56.53
58979;BME280;44763;50.464;30.612;2024-03-22T09:58:32;100493.30;;;12.46;56.57
58979;BME280;44763;50.464;30.612;2024-03-22T10:00:33;100493.34;;;12.44;56.15
58979;BME280;44763;50.464;30.612;2024-03-22T10:02:34;100488.84;;;12.43;56.45
58979;BME280;44763;50.464;30.612;2024-03-22T10:04:35;100483.98;;;12.47;56.64
58979;BME280;44763;50.464;30.612;2024-03-22T10:06:36;100478.33;;;12.51;55.11
58979;BME280;44763;50.464;30.612;2024-03-22T10:08:38;100475.98;;;12.53;55.22
58979;BME280;44763;50.464;30.612;2024-03-22T10:10:39;100476.31;;;12.59;55.74
58979;BME280;44763;50.464;30.612;2024-03-22T10:12:39;100472.46;;;12.65;55.68
58979;BME280;44763;50.464;30.612;2024-03-22T10:14:43;100466.80;;;12.71;55.92
58979;BME280;44763;50.464;30.612;2024-03-22T10:16:44;100465.67;;;12.74;55.95
58979;BME280;44763;50.464;30.612;2024-03-22T10:18:46;100464.28;;;12.76;55.53
58979;BME280;44763;50.464;30.612;2024-03-22T10:21:01;100463.70;;;12.74;55.18
58979;BME280;44763;50.464;30.612;2024-03-22T10:23:02;100461.95;;;12.70;55.43
58979;BME280;44763;50.464;30.612;2024-03-22T10:25:04;100463.95;;;12.75;54.91